sensor_id;sensor_type;location;lat;lon;timestamp;temperature;humidity
7028;DHT22;3555;53.248;10.336;2023-05-19T00:01:44;11.40;1.00
7028;DHT22;3555;53.248;10.336;2023-05-19T00:04:13;11.30;1.00
7028;DHT22;3555;53.248;10.336;2023-05-19T00:06:41;11.30;1.00
7028;DHT22;3555;53.248;10.336;2023-05-19T00:09:10;11.30;1.00
7028;DHT22;3555;53.248;10.336;2023-05-19T00:11:38;11.10;6.30
7028;DHT22;3555;53.248;10.336;2023-05-19T00:14:07;11.00;27.00
7028;DHT22;3555;53.248;10.336;2023-05-19T00:16:35;11.00;53.80
7028;DHT22;3555;53.248;10.336;2023-05-19T00:19:05;11.00;56.50
7028;DHT22;3555;53.248;10.336;2023-05-19T00:21:35;10.90;92.50
7028;DHT22;3555;53.248;10.336;2023-05-19T00:24:03;10.90;75.70
7028;DHT22;3555;53.248;10.336;2023-05-19T00:26:30;11.00;99.90
7028;DHT22;3555;53.248;10.336;2023-05-19T00:28:57;11.10;83.90
7028;DHT22;3555;53.248;10.336;2023-05-19T00:31:24;11.10;95.80
7028;DHT22;3555;53.248;10.336;2023-05-19T00:33:51;11.10;99.90
7028;DHT22;3555;53.248;10.336;2023-05-19T00:36:19;11.20;90.30
7028;DHT22;3555;53.248;10.336;2023-05-19T00:38:46;11.20;98.10
7028;DHT22;3555;53.248;10.336;2023-05-19T00:41:13;11.20;99.90
7028;DHT22;3555;53.248;10.336;2023-05-19T00:43:40;11.30;91.90
7028;DHT22;3555;53.248;10.336;2023-05-19T00:46:07;11.30;99.90
7028;DHT22;3555;53.248;10.336;2023-05-19T00:48:35;11.30;86.70
7028;DHT22;3555;53.248;10.336;2023-05-19T00:51:03;11.20;57.30
7028;DHT22;3555;53.248;10.336;2023-05-19T00:53:33;11.00;99.90
7028;DHT22;3555;53.248;10.336;2023-05-19T00:56:00;11.00;99.90
7028;DHT22;3555;53.248;10.336;2023-05-19T00:58:29;11.00;99.90
7028;DHT22;3555;53.248;10.336;2023-05-19T01:00:57;11.10;99.90
7028;DHT22;3555;53.248;10.336;2023-05-19T01:03:29;11.00;99.90
7028;DHT22;3555;53.248;10.336;2023-05-19T01:05:57;11.00;99.90
7028;DHT22;3555;53.248;10.336;2023-05-19T01:08:26;11.10;99.90
7028;DHT22;3555;53.248;10.336;2023-05-19T01:10:55;11.10;99.90
7028;DHT22;3555;53.248;10.336;2023-05-19T01:13:22;11.20;99.90
7028;DHT22;3555;53.248;10.336;2023-05-19T01:15:58;11.10;99.90
7028;DHT22;3555;53.248;10.336;2023-05-19T01:18:34;11.10;99.90
7028;DHT22;3555;53.248;10.336;2023-05-19T01:24:12;11.20;99.90
7028;DHT22;3555;53.248;10.336;2023-05-19T01:27:08;11.10;99.90
7028;DHT22;3555;53.248;10.336;2023-05-19T01:29:44;11.10;99.90
7028;DHT22;3555;53.248;10.336;2023-05-19T01:32:20;11.10;99.90
7028;DHT22;3555;53.248;10.336;2023-05-19T01:34:50;11.10;99.90
7028;DHT22;3555;53.248;10.336;2023-05-19T01:37:18;11.10;99.90
7028;DHT22;3555;53.248;10.336;2023-05-19T01:39:47;11.00;99.90
7028;DHT22;3555;53.248;10.336;2023-05-19T01:42:15;11.00;99.90
7028;DHT22;3555;53.248;10.336;2023-05-19T01:44:43;10.90;99.90
7028;DHT22;3555;53.248;10.336;2023-05-19T01:47:10;10.90;99.90
7028;DHT22;3555;53.248;10.336;2023-05-19T01:49:38;10.90;99.90
7028;DHT22;3555;53.248;10.336;2023-05-19T01:52:06;10.80;99.90
7028;DHT22;3555;53.248;10.336;2023-05-19T01:54:33;10.80;99.90
7028;DHT22;3555;53.248;10.336;2023-05-19T01:57:08;10.80;99.90
7028;DHT22;3555;53.248;10.336;2023-05-19T01:59:50;10.80;99.90
7028;DHT22;3555;53.248;10.336;2023-05-19T02:02:24;10.70;99.90
7028;DHT22;3555;53.248;10.336;2023-05-19T02:04:59;10.70;99.90
7028;DHT22;3555;53.248;10.336;2023-05-19T02:07:33;10.70;99.90
7028;DHT22;3555;53.248;10.336;2023-05-19T02:10:05;10.90;99.90
7028;DHT22;3555;53.248;10.336;2023-05-19T02:12:34;10.90;99.90
7028;DHT22;3555;53.248;10.336;2023-05-19T02:15:04;11.00;99.90
7028;DHT22;3555;53.248;10.336;2023-05-19T02:17:35;11.00;99.90
7028;DHT22;3555;53.248;10.336;2023-05-19T02:20:05;10.90;99.90
7028;DHT22;3555;53.248;10.336;2023-05-19T02:22:33;10.90;99.90
7028;DHT22;3555;53.248;10.336;2023-05-19T02:25:00;10.80;99.90
7028;DHT22;3555;53.248;10.336;2023-05-19T02:27:27;10.70;99.90
7028;DHT22;3555;53.248;10.336;2023-05-19T02:29:54;10.70;99.90
7028;DHT22;3555;53.248;10.336;2023-05-19T02:32:22;10.70;99.90
7028;DHT22;3555;53.248;10.336;2023-05-19T02:34:48;10.70;99.90
7028;DHT22;3555;53.248;10.336;2023-05-19T02:37:17;10.70;1.00
7028;DHT22;3555;53.248;10.336;2023-05-19T02:39:48;10.50;1.00
7028;DHT22;3555;53.248;10.336;2023-05-19T02:42:15;10.50;1.00
7028;DHT22;3555;53.248;10.336;2023-05-19T02:44:43;10.50;1.00
7028;DHT22;3555;53.248;10.336;2023-05-19T02:47:10;10.30;1.00
7028;DHT22;3555;53.248;10.336;2023-05-19T02:49:37;10.30;1.00
7028;DHT22;3555;53.248;10.336;2023-05-19T02:52:05;10.30;1.00
7028;DHT22;3555;53.248;10.336;2023-05-19T02:54:33;10.10;1.00
7028;DHT22;3555;53.248;10.336;2023-05-19T02:57:00;10.20;1.00
7028;DHT22;3555;53.248;10.336;2023-05-19T02:59:27;10.20;1.00
7028;DHT22;3555;53.248;10.336;2023-05-19T03:01:55;10.10;1.00
7028;DHT22;3555;53.248;10.336;2023-05-19T03:04:22;10.30;1.00
7028;DHT22;3555;53.248;10.336;2023-05-19T03:06:49;10.10;1.00
7028;DHT22;3555;53.248;10.336;2023-05-19T03:09:15;10.10;1.00
7028;DHT22;3555;53.248;10.336;2023-05-19T03:11:44;10.10;1.00
7028;DHT22;3555;53.248;10.336;2023-05-19T03:14:11;10.10;1.00
7028;DHT22;3555;53.248;10.336;2023-05-19T03:16:38;10.00;1.00
7028;DHT22;3555;53.248;10.336;2023-05-19T03:19:05;10.00;1.00
7028;DHT22;3555;53.248;10.336;2023-05-19T03:21:32;10.10;1.00
7028;DHT22;3555;53.248;10.336;2023-05-19T03:24:00;10.00;1.00
7028;DHT22;3555;53.248;10.336;2023-05-19T03:26:27;10.00;1.00
7028;DHT22;3555;53.248;10.336;2023-05-19T03:28:55;10.10;1.00
7028;DHT22;3555;53.248;10.336;2023-05-19T03:31:22;10.10;1.00
7028;DHT22;3555;53.248;10.336;2023-05-19T03:33:49;10.10;1.00
7028;DHT22;3555;53.248;10.336;2023-05-19T03:36:16;10.10;1.00
7028;DHT22;3555;53.248;10.336;2023-05-19T03:38:43;10.10;1.00
7028;DHT22;3555;53.248;10.336;2023-05-19T03:41:10;10.20;1.00
7028;DHT22;3555;53.248;10.336;2023-05-19T03:43:37;10.10;1.00
7028;DHT22;3555;53.248;10.336;2023-05-19T03:46:05;10.10;1.00
7028;DHT22;3555;53.248;10.336;2023-05-19T03:48:32;10.20;1.00
7028;DHT22;3555;53.248;10.336;2023-05-19T03:50:59;10.10;1.00
7028;DHT22;3555;53.248;10.336;2023-05-19T03:53:25;10.20;1.00
7028;DHT22;3555;53.248;10.336;2023-05-19T03:55:54;10.10;1.00
7028;DHT22;3555;53.248;10.336;2023-05-19T03:58:21;10.10;1.00
7028;DHT22;3555;53.248;10.336;2023-05-19T04:00:48;10.10;1.00
7028;DHT22;3555;53.248;10.336;2023-05-19T04:03:16;10.10;1.00
7028;DHT22;3555;53.248;10.336;2023-05-19T04:05:43;10.00;1.00
7028;DHT22;3555;53.248;10.336;2023-05-19T04:08:10;9.90;1.00
7028;DHT22;3555;53.248;10.336;2023-05-19T04:10:37;10.10;1.00
7028;DHT22;3555;53.248;10.336;2023-05-19T04:13:04;10.00;1.00
7028;DHT22;3555;53.248;10.336;2023-05-19T04:15:31;10.10;1.00
7028;DHT22;3555;53.248;10.336;2023-05-19T04:17:58;10.20;1.00
7028;DHT22;3555;53.248;10.336;2023-05-19T04:20:26;10.20;1.00
7028;DHT22;3555;53.248;10.336;2023-05-19T04:22:53;10.20;1.00
7028;DHT22;3555;53.248;10.336;2023-05-19T04:25:20;10.20;1.00
7028;DHT22;3555;53.248;10.336;2023-05-19T04:27:49;10.10;24.30
7028;DHT22;3555;53.248;10.336;2023-05-19T04:30:17;10.20;37.80
7028;DHT22;3555;53.248;10.336;2023-05-19T04:32:46;10.30;1.00
7028;DHT22;3555;53.248;10.336;2023-05-19T04:35:14;10.30;34.10
7028;DHT22;3555;53.248;10.336;2023-05-19T04:37:43;10.30;99.90
7028;DHT22;3555;53.248;10.336;2023-05-19T04:40:11;10.30;99.90
7028;DHT22;3555;53.248;10.336;2023-05-19T04:42:38;10.20;99.90
7028;DHT22;3555;53.248;10.336;2023-05-19T04:45:08;10.30;99.90
7028;DHT22;3555;53.248;10.336;2023-05-19T04:47:36;10.30;99.90
7028;DHT22;3555;53.248;10.336;2023-05-19T04:50:04;10.30;99.90
7028;DHT22;3555;53.248;10.336;2023-05-19T04:52:32;10.30;1.00
7028;DHT22;3555;53.248;10.336;2023-05-19T04:55:00;10.40;1.00
7028;DHT22;3555;53.248;10.336;2023-05-19T04:57:27;10.60;1.00
7028;DHT22;3555;53.248;10.336;2023-05-19T04:59:54;10.70;99.90
7028;DHT22;3555;53.248;10.336;2023-05-19T05:02:24;10.90;99.90
7028;DHT22;3555;53.248;10.336;2023-05-19T05:04:52;11.00;99.90
7028;DHT22;3555;53.248;10.336;2023-05-19T05:07:21;11.20;99.90
7028;DHT22;3555;53.248;10.336;2023-05-19T05:09:48;11.40;1.00
7028;DHT22;3555;53.248;10.336;2023-05-19T05:12:17;11.40;1.00
7028;DHT22;3555;53.248;10.336;2023-05-19T05:14:44;11.50;1.00
7028;DHT22;3555;53.248;10.336;2023-05-19T05:17:11;11.50;1.00
7028;DHT22;3555;53.248;10.336;2023-05-19T05:19:39;11.60;1.00
7028;DHT22;3555;53.248;10.336;2023-05-19T05:22:06;11.60;1.00
7028;DHT22;3555;53.248;10.336;2023-05-19T05:24:34;11.60;1.00
7028;DHT22;3555;53.248;10.336;2023-05-19T05:27:01;11.50;1.00
7028;DHT22;3555;53.248;10.336;2023-05-19T05:29:29;11.70;1.00
7028;DHT22;3555;53.248;10.336;2023-05-19T05:31:56;11.60;1.00
7028;DHT22;3555;53.248;10.336;2023-05-19T05:34:23;11.80;1.00
7028;DHT22;3555;53.248;10.336;2023-05-19T05:36:50;11.80;1.00
7028;DHT22;3555;53.248;10.336;2023-05-19T05:39:17;11.90;1.00
7028;DHT22;3555;53.248;10.336;2023-05-19T05:41:44;12.10;1.00
7028;DHT22;3555;53.248;10.336;2023-05-19T05:44:11;12.40;1.00
7028;DHT22;3555;53.248;10.336;2023-05-19T05:46:40;12.70;1.00
7028;DHT22;3555;53.248;10.336;2023-05-19T05:49:07;13.10;1.00
7028;DHT22;3555;53.248;10.336;2023-05-19T05:51:35;13.50;99.90
7028;DHT22;3555;53.248;10.336;2023-05-19T05:54:04;13.90;99.90
7028;DHT22;3555;53.248;10.336;2023-05-19T05:56:32;14.20;99.90
7028;DHT22;3555;53.248;10.336;2023-05-19T05:59:01;14.60;99.90
7028;DHT22;3555;53.248;10.336;2023-05-19T06:01:28;15.00;99.80
7028;DHT22;3555;53.248;10.336;2023-05-19T06:03:57;15.20;1.00
7028;DHT22;3555;53.248;10.336;2023-05-19T06:06:24;15.40;1.00
7028;DHT22;3555;53.248;10.336;2023-05-19T06:08:51;15.60;1.00
7028;DHT22;3555;53.248;10.336;2023-05-19T06:11:18;15.80;1.00
7028;DHT22;3555;53.248;10.336;2023-05-19T06:13:45;15.90;1.00
7028;DHT22;3555;53.248;10.336;2023-05-19T06:16:12;16.10;1.00
7028;DHT22;3555;53.248;10.336;2023-05-19T06:18:39;16.40;1.00
7028;DHT22;3555;53.248;10.336;2023-05-19T06:21:07;16.60;1.00
7028;DHT22;3555;53.248;10.336;2023-05-19T06:23:38;16.80;1.00
7028;DHT22;3555;53.248;10.336;2023-05-19T06:26:05;17.00;1.00
7028;DHT22;3555;53.248;10.336;2023-05-19T06:28:32;17.20;1.00
7028;DHT22;3555;53.248;10.336;2023-05-19T06:30:59;17.10;1.00
7028;DHT22;3555;53.248;10.336;2023-05-19T06:33:26;17.20;1.00
7028;DHT22;3555;53.248;10.336;2023-05-19T06:35:53;16.90;1.00
7028;DHT22;3555;53.248;10.336;2023-05-19T06:38:21;16.80;1.00
7028;DHT22;3555;53.248;10.336;2023-05-19T06:40:48;16.80;1.00
7028;DHT22;3555;53.248;10.336;2023-05-19T06:43:15;16.90;1.00
7028;DHT22;3555;53.248;10.336;2023-05-19T06:45:42;16.90;1.00
7028;DHT22;3555;53.248;10.336;2023-05-19T06:48:09;16.60;1.00
7028;DHT22;3555;53.248;10.336;2023-05-19T06:50:36;16.60;1.00
7028;DHT22;3555;53.248;10.336;2023-05-19T06:53:03;16.70;1.00
7028;DHT22;3555;53.248;10.336;2023-05-19T06:55:32;16.40;1.00
7028;DHT22;3555;53.248;10.336;2023-05-19T06:57:59;16.10;1.00
7028;DHT22;3555;53.248;10.336;2023-05-19T07:00:25;15.90;1.00
7028;DHT22;3555;53.248;10.336;2023-05-19T07:02:52;15.70;1.00
7028;DHT22;3555;53.248;10.336;2023-05-19T07:05:19;15.90;1.00
7028;DHT22;3555;53.248;10.336;2023-05-19T07:07:46;16.20;1.00
7028;DHT22;3555;53.248;10.336;2023-05-19T07:10:13;16.60;1.00
7028;DHT22;3555;53.248;10.336;2023-05-19T07:12:42;17.10;1.00
7028;DHT22;3555;53.248;10.336;2023-05-19T07:15:09;17.20;1.00
7028;DHT22;3555;53.248;10.336;2023-05-19T07:17:36;17.40;1.00
7028;DHT22;3555;53.248;10.336;2023-05-19T07:20:04;17.70;1.00
7028;DHT22;3555;53.248;10.336;2023-05-19T07:22:34;18.20;1.00
7028;DHT22;3555;53.248;10.336;2023-05-19T07:25:01;18.40;1.00
7028;DHT22;3555;53.248;10.336;2023-05-19T07:27:28;18.50;1.00
7028;DHT22;3555;53.248;10.336;2023-05-19T07:29:56;18.80;1.00
7028;DHT22;3555;53.248;10.336;2023-05-19T07:32:23;19.00;1.00
7028;DHT22;3555;53.248;10.336;2023-05-19T07:34:51;19.30;1.00
7028;DHT22;3555;53.248;10.336;2023-05-19T07:37:18;19.40;1.00
7028;DHT22;3555;53.248;10.336;2023-05-19T07:39:44;19.80;1.00
7028;DHT22;3555;53.248;10.336;2023-05-19T07:42:11;19.90;1.00
7028;DHT22;3555;53.248;10.336;2023-05-19T07:44:38;20.10;1.00
7028;DHT22;3555;53.248;10.336;2023-05-19T07:47:06;20.00;1.00
7028;DHT22;3555;53.248;10.336;2023-05-19T07:49:33;20.30;1.00
7028;DHT22;3555;53.248;10.336;2023-05-19T07:52:00;20.60;1.00
7028;DHT22;3555;53.248;10.336;2023-05-19T07:54:27;20.40;1.00
7028;DHT22;3555;53.248;10.336;2023-05-19T07:56:54;20.40;1.00
7028;DHT22;3555;53.248;10.336;2023-05-19T07:59:21;20.40;1.00
7028;DHT22;3555;53.248;10.336;2023-05-19T08:01:48;20.30;1.00
7028;DHT22;3555;53.248;10.336;2023-05-19T08:04:17;20.20;1.00
7028;DHT22;3555;53.248;10.336;2023-05-19T08:06:44;19.80;1.00
7028;DHT22;3555;53.248;10.336;2023-05-19T08:09:10;19.60;1.00
7028;DHT22;3555;53.248;10.336;2023-05-19T08:11:37;19.60;1.00
7028;DHT22;3555;53.248;10.336;2023-05-19T08:14:04;19.60;1.00
7028;DHT22;3555;53.248;10.336;2023-05-19T08:16:31;19.40;1.00
7028;DHT22;3555;53.248;10.336;2023-05-19T08:18:58;19.10;1.00
7028;DHT22;3555;53.248;10.336;2023-05-19T08:21:28;19.00;1.00
7028;DHT22;3555;53.248;10.336;2023-05-19T08:23:55;19.00;1.00
7028;DHT22;3555;53.248;10.336;2023-05-19T08:26:22;18.80;1.00
7028;DHT22;3555;53.248;10.336;2023-05-19T08:28:49;18.90;1.00
7028;DHT22;3555;53.248;10.336;2023-05-19T08:31:16;19.20;1.00
7028;DHT22;3555;53.248;10.336;2023-05-19T08:33:43;19.60;1.00
7028;DHT22;3555;53.248;10.336;2023-05-19T08:36:10;20.00;1.00
7028;DHT22;3555;53.248;10.336;2023-05-19T08:38:39;20.10;1.00
7028;DHT22;3555;53.248;10.336;2023-05-19T08:41:06;20.20;1.00
7028;DHT22;3555;53.248;10.336;2023-05-19T08:43:33;20.40;1.00
7028;DHT22;3555;53.248;10.336;2023-05-19T08:46:00;20.50;1.00
7028;DHT22;3555;53.248;10.336;2023-05-19T08:48:29;20.30;1.00
7028;DHT22;3555;53.248;10.336;2023-05-19T08:51:02;20.30;1.00
7028;DHT22;3555;53.248;10.336;2023-05-19T08:53:35;20.40;1.00
7028;DHT22;3555;53.248;10.336;2023-05-19T08:56:09;20.70;1.00
7028;DHT22;3555;53.248;10.336;2023-05-19T08:58:38;20.70;1.00
7028;DHT22;3555;53.248;10.336;2023-05-19T09:01:06;20.80;1.00
7028;DHT22;3555;53.248;10.336;2023-05-19T09:03:33;20.80;1.00
7028;DHT22;3555;53.248;10.336;2023-05-19T09:06:04;20.80;1.00
7028;DHT22;3555;53.248;10.336;2023-05-19T09:08:32;21.00;1.00
7028;DHT22;3555;53.248;10.336;2023-05-19T09:11:00;21.20;1.00
7028;DHT22;3555;53.248;10.336;2023-05-19T09:13:28;21.40;1.00
7028;DHT22;3555;53.248;10.336;2023-05-19T09:15:56;21.80;1.00
7028;DHT22;3555;53.248;10.336;2023-05-19T09:18:24;21.80;1.00
7028;DHT22;3555;53.248;10.336;2023-05-19T09:20:55;21.90;1.00
7028;DHT22;3555;53.248;10.336;2023-05-19T09:23:26;22.00;1.00
7028;DHT22;3555;53.248;10.336;2023-05-19T09:25:53;22.10;1.00
7028;DHT22;3555;53.248;10.336;2023-05-19T09:28:24;22.20;1.00
7028;DHT22;3555;53.248;10.336;2023-05-19T09:31:03;21.90;1.00
7028;DHT22;3555;53.248;10.336;2023-05-19T09:33:33;21.80;1.00
7028;DHT22;3555;53.248;10.336;2023-05-19T09:36:00;21.80;1.00
7028;DHT22;3555;53.248;10.336;2023-05-19T09:38:28;21.60;1.00
7028;DHT22;3555;53.248;10.336;2023-05-19T09:40:55;21.70;1.00
7028;DHT22;3555;53.248;10.336;2023-05-19T09:43:23;21.80;1.00
7028;DHT22;3555;53.248;10.336;2023-05-19T09:45:54;21.80;1.00
7028;DHT22;3555;53.248;10.336;2023-05-19T09:48:25;22.00;1.00
7028;DHT22;3555;53.248;10.336;2023-05-19T09:50:52;21.90;99.90
7028;DHT22;3555;53.248;10.336;2023-05-19T09:53:20;21.70;99.90
7028;DHT22;3555;53.248;10.336;2023-05-19T09:55:48;21.90;1.00
7028;DHT22;3555;53.248;10.336;2023-05-19T09:58:15;21.80;1.00
7028;DHT22;3555;53.248;10.336;2023-05-19T10:00:44;22.00;1.00
7028;DHT22;3555;53.248;10.336;2023-05-19T10:03:12;21.90;1.00
7028;DHT22;3555;53.248;10.336;2023-05-19T10:05:42;22.10;1.00
7028;DHT22;3555;53.248;10.336;2023-05-19T10:08:11;21.90;99.90
7028;DHT22;3555;53.248;10.336;2023-05-19T10:10:38;22.10;99.90
7028;DHT22;3555;53.248;10.336;2023-05-19T10:13:05;22.20;1.00
7028;DHT22;3555;53.248;10.336;2023-05-19T10:15:34;22.10;99.90
7028;DHT22;3555;53.248;10.336;2023-05-19T10:18:02;21.90;99.90
7028;DHT22;3555;53.248;10.336;2023-05-19T10:20:30;21.80;99.90
7028;DHT22;3555;53.248;10.336;2023-05-19T10:22:58;21.70;99.90
7028;DHT22;3555;53.248;10.336;2023-05-19T10:25:25;21.90;99.90
7028;DHT22;3555;53.248;10.336;2023-05-19T10:27:54;21.80;1.00
7028;DHT22;3555;53.248;10.336;2023-05-19T10:30:25;21.90;1.00
7028;DHT22;3555;53.248;10.336;2023-05-19T10:32:54;22.10;1.00
7028;DHT22;3555;53.248;10.336;2023-05-19T10:35:41;22.30;1.00
7028;DHT22;3555;53.248;10.336;2023-05-19T10:38:21;22.60;1.00
7028;DHT22;3555;53.248;10.336;2023-05-19T10:40:55;22.70;1.00
7028;DHT22;3555;53.248;10.336;2023-05-19T10:43:36;22.50;99.90
7028;DHT22;3555;53.248;10.336;2023-05-19T10:46:04;22.20;99.90
7028;DHT22;3555;53.248;10.336;2023-05-19T10:48:32;22.30;99.90
7028;DHT22;3555;53.248;10.336;2023-05-19T10:51:00;22.00;99.90
7028;DHT22;3555;53.248;10.336;2023-05-19T10:53:31;21.80;99.90
7028;DHT22;3555;53.248;10.336;2023-05-19T10:56:00;21.70;1.00
7028;DHT22;3555;53.248;10.336;2023-05-19T10:58:38;21.80;1.00
7028;DHT22;3555;53.248;10.336;2023-05-19T11:01:06;22.00;99.90
7028;DHT22;3555;53.248;10.336;2023-05-19T11:03:47;21.80;99.90
7028;DHT22;3555;53.248;10.336;2023-05-19T11:06:19;21.20;99.90
7028;DHT22;3555;53.248;10.336;2023-05-19T11:08:51;20.90;99.90
7028;DHT22;3555;53.248;10.336;2023-05-19T11:11:19;20.60;99.90
7028;DHT22;3555;53.248;10.336;2023-05-19T11:13:47;20.40;99.90
7028;DHT22;3555;53.248;10.336;2023-05-19T11:16:18;20.30;99.90
7028;DHT22;3555;53.248;10.336;2023-05-19T11:18:47;20.30;99.90
7028;DHT22;3555;53.248;10.336;2023-05-19T11:21:15;20.10;99.90
7028;DHT22;3555;53.248;10.336;2023-05-19T11:23:42;20.00;99.90
7028;DHT22;3555;53.248;10.336;2023-05-19T11:26:11;19.90;99.90
7028;DHT22;3555;53.248;10.336;2023-05-19T11:28:38;19.70;1.00
7028;DHT22;3555;53.248;10.336;2023-05-19T11:31:06;19.60;1.00
7028;DHT22;3555;53.248;10.336;2023-05-19T11:33:35;19.60;1.00
7028;DHT22;3555;53.248;10.336;2023-05-19T11:36:02;19.70;1.00
7028;DHT22;3555;53.248;10.336;2023-05-19T11:38:30;19.50;1.00
7028;DHT22;3555;53.248;10.336;2023-05-19T11:40:58;19.60;1.00
7028;DHT22;3555;53.248;10.336;2023-05-19T11:43:27;19.60;1.00
7028;DHT22;3555;53.248;10.336;2023-05-19T11:45:54;19.40;1.00
7028;DHT22;3555;53.248;10.336;2023-05-19T11:48:21;19.40;1.00
7028;DHT22;3555;53.248;10.336;2023-05-19T11:50:48;19.50;1.00
7028;DHT22;3555;53.248;10.336;2023-05-19T11:53:16;19.80;1.00
7028;DHT22;3555;53.248;10.336;2023-05-19T11:55:44;20.10;1.00
7028;DHT22;3555;53.248;10.336;2023-05-19T11:58:12;20.40;1.00
7028;DHT22;3555;53.248;10.336;2023-05-19T12:00:41;20.80;1.00
7028;DHT22;3555;53.248;10.336;2023-05-19T12:03:10;21.10;99.90
7028;DHT22;3555;53.248;10.336;2023-05-19T12:05:41;21.30;99.90
7028;DHT22;3555;53.248;10.336;2023-05-19T12:08:09;21.30;1.00
7028;DHT22;3555;53.248;10.336;2023-05-19T12:10:37;21.00;99.90
7028;DHT22;3555;53.248;10.336;2023-05-19T12:13:04;20.80;99.90
7028;DHT22;3555;53.248;10.336;2023-05-19T12:15:33;20.70;1.00
7028;DHT22;3555;53.248;10.336;2023-05-19T12:18:02;20.90;1.00
7028;DHT22;3555;53.248;10.336;2023-05-19T12:20:30;20.90;99.90
7028;DHT22;3555;53.248;10.336;2023-05-19T12:23:00;20.80;99.90
7028;DHT22;3555;53.248;10.336;2023-05-19T12:25:28;20.60;1.00
7028;DHT22;3555;53.248;10.336;2023-05-19T12:27:56;20.30;1.00
7028;DHT22;3555;53.248;10.336;2023-05-19T12:30:27;20.20;1.00
7028;DHT22;3555;53.248;10.336;2023-05-19T12:32:55;19.90;1.00
7028;DHT22;3555;53.248;10.336;2023-05-19T12:35:26;19.90;1.00
7028;DHT22;3555;53.248;10.336;2023-05-19T12:37:54;19.90;1.00
7028;DHT22;3555;53.248;10.336;2023-05-19T12:40:22;19.60;1.00
7028;DHT22;3555;53.248;10.336;2023-05-19T12:42:50;19.60;1.00
7028;DHT22;3555;53.248;10.336;2023-05-19T12:45:22;19.70;1.00
7028;DHT22;3555;53.248;10.336;2023-05-19T12:47:50;19.70;1.00
7028;DHT22;3555;53.248;10.336;2023-05-19T12:50:17;19.60;1.00
7028;DHT22;3555;53.248;10.336;2023-05-19T12:52:47;19.60;1.00
7028;DHT22;3555;53.248;10.336;2023-05-19T12:55:16;19.80;1.00
7028;DHT22;3555;53.248;10.336;2023-05-19T12:57:48;19.90;1.00
7028;DHT22;3555;53.248;10.336;2023-05-19T13:00:17;20.00;1.00
7028;DHT22;3555;53.248;10.336;2023-05-19T13:02:56;20.20;1.00
7028;DHT22;3555;53.248;10.336;2023-05-19T13:05:23;20.50;1.00
7028;DHT22;3555;53.248;10.336;2023-05-19T13:07:55;20.70;1.00
7028;DHT22;3555;53.248;10.336;2023-05-19T13:10:23;20.50;1.00
7028;DHT22;3555;53.248;10.336;2023-05-19T13:12:52;19.90;1.00
7028;DHT22;3555;53.248;10.336;2023-05-19T13:15:21;19.80;1.00
7028;DHT22;3555;53.248;10.336;2023-05-19T13:17:49;19.60;1.00
7028;DHT22;3555;53.248;10.336;2023-05-19T13:20:16;19.30;1.00
7028;DHT22;3555;53.248;10.336;2023-05-19T13:22:43;19.20;1.00
7028;DHT22;3555;53.248;10.336;2023-05-19T13:25:12;19.00;1.00
7028;DHT22;3555;53.248;10.336;2023-05-19T13:27:39;18.90;1.00
7028;DHT22;3555;53.248;10.336;2023-05-19T13:30:06;19.00;1.00
7028;DHT22;3555;53.248;10.336;2023-05-19T13:32:34;19.00;1.00
7028;DHT22;3555;53.248;10.336;2023-05-19T13:35:01;19.10;1.00
7028;DHT22;3555;53.248;10.336;2023-05-19T13:37:28;19.00;1.00
7028;DHT22;3555;53.248;10.336;2023-05-19T13:39:55;18.90;1.00
7028;DHT22;3555;53.248;10.336;2023-05-19T13:42:24;19.10;1.00
7028;DHT22;3555;53.248;10.336;2023-05-19T13:44:53;19.20;1.00
7028;DHT22;3555;53.248;10.336;2023-05-19T13:47:21;19.30;1.00
7028;DHT22;3555;53.248;10.336;2023-05-19T13:49:49;19.20;1.00
7028;DHT22;3555;53.248;10.336;2023-05-19T13:52:16;19.20;1.00
7028;DHT22;3555;53.248;10.336;2023-05-19T13:54:43;19.20;1.00
7028;DHT22;3555;53.248;10.336;2023-05-19T13:57:10;19.40;1.00
7028;DHT22;3555;53.248;10.336;2023-05-19T13:59:38;19.50;1.00
7028;DHT22;3555;53.248;10.336;2023-05-19T14:02:06;19.60;1.00
7028;DHT22;3555;53.248;10.336;2023-05-19T14:04:35;19.50;1.00
7028;DHT22;3555;53.248;10.336;2023-05-19T14:07:02;19.60;1.00
7028;DHT22;3555;53.248;10.336;2023-05-19T14:09:30;19.60;1.00
7028;DHT22;3555;53.248;10.336;2023-05-19T14:11:57;19.70;1.00
7028;DHT22;3555;53.248;10.336;2023-05-19T14:14:23;19.70;1.00
7028;DHT22;3555;53.248;10.336;2023-05-19T14:16:52;19.50;1.00
7028;DHT22;3555;53.248;10.336;2023-05-19T14:19:19;19.40;1.00
7028;DHT22;3555;53.248;10.336;2023-05-19T14:21:46;19.40;1.00
7028;DHT22;3555;53.248;10.336;2023-05-19T14:24:13;19.30;1.00
7028;DHT22;3555;53.248;10.336;2023-05-19T14:26:40;19.20;1.00
7028;DHT22;3555;53.248;10.336;2023-05-19T14:29:07;19.20;1.00
7028;DHT22;3555;53.248;10.336;2023-05-19T14:31:34;19.30;1.00
7028;DHT22;3555;53.248;10.336;2023-05-19T14:34:02;19.60;1.00
7028;DHT22;3555;53.248;10.336;2023-05-19T14:36:29;19.60;1.00
7028;DHT22;3555;53.248;10.336;2023-05-19T14:38:57;19.80;1.00
7028;DHT22;3555;53.248;10.336;2023-05-19T14:41:24;19.90;1.00
7028;DHT22;3555;53.248;10.336;2023-05-19T14:43:51;20.00;1.00
7028;DHT22;3555;53.248;10.336;2023-05-19T14:46:18;19.90;1.00
7028;DHT22;3555;53.248;10.336;2023-05-19T14:48:45;19.60;1.00
7028;DHT22;3555;53.248;10.336;2023-05-19T14:51:14;19.70;1.00
7028;DHT22;3555;53.248;10.336;2023-05-19T14:53:40;19.60;1.00
7028;DHT22;3555;53.248;10.336;2023-05-19T14:56:07;19.50;1.00
7028;DHT22;3555;53.248;10.336;2023-05-19T14:58:34;19.20;1.00
7028;DHT22;3555;53.248;10.336;2023-05-19T15:01:01;19.10;1.00
7028;DHT22;3555;53.248;10.336;2023-05-19T15:03:28;19.00;1.00
7028;DHT22;3555;53.248;10.336;2023-05-19T15:05:55;19.00;1.00
7028;DHT22;3555;53.248;10.336;2023-05-19T15:08:24;19.00;1.00
7028;DHT22;3555;53.248;10.336;2023-05-19T15:10:50;18.90;1.00
7028;DHT22;3555;53.248;10.336;2023-05-19T15:13:17;18.80;1.00
7028;DHT22;3555;53.248;10.336;2023-05-19T15:15:45;18.90;1.00
7028;DHT22;3555;53.248;10.336;2023-05-19T15:18:12;18.70;1.00
7028;DHT22;3555;53.248;10.336;2023-05-19T15:20:42;18.60;1.00
7028;DHT22;3555;53.248;10.336;2023-05-19T15:23:10;18.80;1.00
7028;DHT22;3555;53.248;10.336;2023-05-19T15:25:39;18.80;1.00
7028;DHT22;3555;53.248;10.336;2023-05-19T15:28:06;19.00;1.00
7028;DHT22;3555;53.248;10.336;2023-05-19T15:30:32;18.90;1.00
7028;DHT22;3555;53.248;10.336;2023-05-19T15:32:59;18.90;1.00
7028;DHT22;3555;53.248;10.336;2023-05-19T15:35:26;18.90;1.00
7028;DHT22;3555;53.248;10.336;2023-05-19T15:37:53;18.90;1.00
7028;DHT22;3555;53.248;10.336;2023-05-19T15:40:20;19.00;1.00
7028;DHT22;3555;53.248;10.336;2023-05-19T15:42:48;18.90;1.00
7028;DHT22;3555;53.248;10.336;2023-05-19T15:45:15;18.80;1.00
7028;DHT22;3555;53.248;10.336;2023-05-19T15:47:42;19.00;1.00
7028;DHT22;3555;53.248;10.336;2023-05-19T15:50:09;19.10;1.00
7028;DHT22;3555;53.248;10.336;2023-05-19T15:52:36;19.20;1.00
7028;DHT22;3555;53.248;10.336;2023-05-19T15:55:04;19.30;1.00
7028;DHT22;3555;53.248;10.336;2023-05-19T15:57:31;19.40;1.00
7028;DHT22;3555;53.248;10.336;2023-05-19T15:59:59;19.40;1.00
7028;DHT22;3555;53.248;10.336;2023-05-19T16:02:26;19.40;1.00
7028;DHT22;3555;53.248;10.336;2023-05-19T16:04:53;19.50;1.00
7028;DHT22;3555;53.248;10.336;2023-05-19T16:07:20;19.50;1.00